Time;durP1;ratioP1;P1;durP2;ratioP2;P2;SDS_P1;SDS_P2;PMS_P1;PMS_P2;Temp;Humidity;BMP_temperature;BMP_pressure;BME280_temperature;BME280_humidity;BME280_pressure;Samples;Min_cycle;Max_cycle;Signal;HPM_P1;HPM_P2
2023/08/01 00:01:57;;;;;;;;;;;;;;;;;;1283198;22;19916;-79
2023/08/01 00:05:44;;;;;;;;;;;;;;;;;;1289328;22;20253;-79
2023/08/01 00:06:15;;;;;;;;;;;;;;;;;;1283628;22;19916;-85
2023/08/01 00:10:45;;;;;;;;;;;;;;;;;;1260015;22;20909;-78
2023/08/01 00:11:55;;;;;;;;;;;;;;;;;;1257144;22;20652;-78
2023/08/01 00:12:26;;;;;;;;;;;;;;;;;;1260121;23;19914;-79
2023/08/01 00:12:56;;;;;;;;;;;;;;;;;;1259681;23;19905;-78
2023/08/01 00:13:26;;;;;;;;;;;;;;;;;;1260036;23;19905;-79
2023/08/01 00:13:56;;;;;;;;;;;;;;;;;;1259636;23;19905;-79
2023/08/01 00:14:27;;;;;;;;;;;;;;;;;;1259939;23;19905;-79
2023/08/01 00:14:57;;;;;;;;;;;;;;;;;;1259284;23;20309;-79
2023/08/01 00:15:27;;;;;;;;;;;;;;;;;;1259600;23;19951;-79
2023/08/01 00:15:57;;;;;;;;;;;;;;;;;;1259457;23;19905;-79
2023/08/01 00:16:27;;;;;;;;;;;;;;;;;;1259538;23;19996;-79
2023/08/01 00:16:58;;;;;;;;;;;;;;;;;;1259220;23;19905;-79
2023/08/01 00:26:48;;;;;;;;;;;;;;;;;;1156379;22;2558934;-78
2023/08/01 00:27:59;;;;;;;;;;;;;;;;;;1267138;22;20900;-79
2023/08/01 00:28:29;;;;;;;;;;;;;;;;;;1291675;23;19915;-78
2023/08/01 00:28:59;;;;;;;;;;;;;;;;;;1291514;23;19915;-79
2023/08/01 00:29:29;;;;;;;;;;;;;;;;;;1291738;23;19912;-78
2023/08/01 00:30:00;;;;;;;;;;;;;;;;;;1291546;23;20271;-78
2023/08/01 00:30:30;;;;;;;;;;;;;;;;;;1291727;23;19903;-78
2023/08/01 00:31:00;;;;;;;;;;;;;;;;;;1291359;23;19911;-79
2023/08/01 00:31:30;;;;;;;;;;;;;;;;;;1291754;23;19973;-79
2023/08/01 00:32:00;;;;;;;;;;;;;;;;;;1292525;22;19904;-79
2023/08/01 00:32:31;;;;;;;;;;;;;;;;;;1298064;22;19903;-79
2023/08/01 00:33:01;;;;;;;;;;;;;;;;;;1297726;22;19911;-78
2023/08/01 00:33:31;;;;;;;;;;;;;;;;;;1297588;22;20367;-79
2023/08/01 00:34:01;;;;;;;;;;;;;;;;;;1297387;22;19993;-79
2023/08/01 00:34:32;;;;;;;;;;;;;;;;;;1297597;22;19990;-79
2023/08/01 00:35:02;;;;;;;;;;;;;;;;;;1297343;22;19986;-79
2023/08/01 00:35:32;;;;;;;;;;;;;;;;;;1291204;22;20033;-79
2023/08/01 00:36:03;;;;;;;;;;;;;;;;;;1290904;23;20327;-79
2023/08/01 00:36:33;;;;;;;;;;;;;;;;;;1285013;23;19954;-78
2023/08/01 00:37:03;;;;;;;;;;;;;;;;;;1284686;23;19904;-79
2023/08/01 00:37:33;;;;;;;;;;;;;;;;;;1291209;23;19907;-79
2023/08/01 00:38:04;;;;;;;;;;;;;;;;;;1291292;23;19904;-79
2023/08/01 00:38:34;;;;;;;;;;;;;;;;;;1297462;22;19910;-79
2023/08/01 00:39:04;;;;;;;;;;;;;;;;;;1291006;23;19903;-79
2023/08/01 00:39:34;;;;;;;;;;;;;;;;;;1297663;22;19903;-79
2023/08/01 00:40:05;;;;;;;;;;;;;;;;;;1297436;22;19953;-79
2023/08/01 00:40:35;;;;;;;;;;;;;;;;;;1297646;22;19904;-78
2023/08/01 00:41:05;;;;;;;;;;;;;;;;;;1297466;22;19910;-79
2023/08/01 00:41:35;;;;;;;;;;;;;;;;;;1297434;22;19903;-79
2023/08/01 00:42:06;;;;;;;;;;;;;;;;;;1297408;22;20431;-79
2023/08/01 00:42:37;;;;;;;;;;;;;;;;;;1297497;22;20228;-79
2023/08/01 00:43:07;;;;;;;;;;;;;;;;;;1297421;22;20341;-79
2023/08/01 00:43:37;;;;;;;;;;;;;;;;;;1291265;22;19951;-79
2023/08/01 00:44:07;;;;;;;;;;;;;;;;;;1291245;22;19910;-79
2023/08/01 00:44:37;;;;;;;;;;;;;;;;;;1291184;22;20383;-79
2023/08/01 00:45:08;;;;;;;;;;;;;;;;;;1291214;23;19904;-79
2023/08/01 00:45:38;;;;;;;;;;;;;;;;;;1297774;22;19903;-79
2023/08/01 00:46:08;;;;;;;;;;;;;;;;;;1297497;22;20240;-80
2023/08/01 00:46:39;;;;;;;;;;;;;;;;;;1298093;22;19907;-80
2023/08/01 00:47:09;;;;;;;;;;;;;;;;;;1297238;22;19903;-79
2023/08/01 00:47:39;;;;;;;;;;;;;;;;;;1295894;22;19934;-79
2023/08/01 00:48:09;;;;;;;;;;;;;;;;;;1297017;22;19911;-79
2023/08/01 00:48:40;;;;;;;;;;;;;;;;;;1297509;22;19981;-79
2023/08/01 00:49:10;;;;;;;;;;;;;;;;;;1297241;22;19907;-79
2023/08/01 00:49:40;;;;;;;;;;;;;;;;;;1291027;22;19911;-80
2023/08/01 00:50:11;;;;;;;;;;;;;;;;;;1291160;22;19910;-80
2023/08/01 00:50:41;;;;;;;;;;;;;;;;;;1291114;22;19903;-81
2023/08/01 00:51:12;;;;;;;;;;;;;;;;;;1290901;23;19986;-80
2023/08/01 00:51:42;;;;;;;;;;;;;;;;;;1297670;22;19911;-79
2023/08/01 00:52:12;;;;;;;;;;;;;;;;;;1297277;22;19986;-79
2023/08/01 00:52:42;;;;;;;;;;;;;;;;;;1298042;22;19907;-80
2023/08/01 00:53:13;;;;;;;;;;;;;;;;;;1297758;22;19985;-80
2023/08/01 00:53:45;;;;;;;;;;;;;;;;;;1297959;22;19922;-80
2023/08/01 00:54:15;;;;;;;;;;;;;;;;;;1297250;22;20274;-80
2023/08/01 00:54:45;;;;;;;;;;;;;;;;;;1297292;22;19907;-80
2023/08/01 00:55:16;;;;;;;;;;;;;;;;;;1297456;22;19907;-79
2023/08/01 00:55:46;;;;;;;;;;;;;;;;;;1297370;22;19914;-79
2023/08/01 00:56:16;;;;;;;;;;;;;;;;;;1297496;22;19903;-79
2023/08/01 00:56:46;;;;;;;;;;;;;;;;;;1297506;22;19964;-79
2023/08/01 00:57:17;;;;;;;;;;;;;;;;;;1297434;22;19907;-79
2023/08/01 00:57:47;;;;;;;;;;;;;;;;;;1297447;22;20344;-79
2023/08/01 00:58:17;;;;;;;;;;;;;;;;;;1295047;22;19903;-79
2023/08/01 00:58:47;;;;;;;;;;;;;;;;;;1297486;22;19914;-79
2023/08/01 00:59:18;;;;;;;;;;;;;;;;;;1297354;22;19909;-79
2023/08/01 00:59:48;;;;;;;;;;;;;;;;;;1297274;22;19907;-80
2023/08/01 01:00:18;;;;;;;;;;;;;;;;;;1297386;22;19903;-80
2023/08/01 01:00:48;;;;;;;;;;;;;;;;;;1297503;22;19907;-80
2023/08/01 01:01:19;;;;;;;;;;;;;;;;;;1297201;22;19911;-79
2023/08/01 01:01:49;;;;;;;;;;;;;;;;;;1297312;22;19908;-79
2023/08/01 01:02:20;;;;;;;;;;;;;;;;;;1297321;22;19974;-79
2023/08/01 01:02:50;;;;;;;;;;;;;;;;;;1297297;22;20339;-80
2023/08/01 01:03:20;;;;;;;;;;;;;;;;;;1291077;22;20444;-80
2023/08/01 01:03:50;;;;;;;;;;;;;;;;;;1297292;22;19946;-79
2023/08/01 01:04:21;;;;;;;;;;;;;;;;;;1291092;23;19957;-79
2023/08/01 01:04:51;;;;;;;;;;;;;;;;;;1290955;23;19908;-79
2023/08/01 01:05:21;;;;;;;;;;;;;;;;;;1291280;23;19903;-79
2023/08/01 01:05:51;;;;;;;;;;;;;;;;;;1291022;22;19982;-79
2023/08/01 01:06:22;;;;;;;;;;;;;;;;;;1297638;22;20279;-79
2023/08/01 01:06:52;;;;;;;;;;;;;;;;;;1297846;22;20216;-79
2023/08/01 01:07:22;;;;;;;;;;;;;;;;;;1298016;22;19914;-79
2023/08/01 01:07:52;;;;;;;;;;;;;;;;;;1297869;22;19903;-79
2023/08/01 01:08:23;;;;;;;;;;;;;;;;;;1297493;22;19953;-79
2023/08/01 01:08:55;;;;;;;;;;;;;;;;;;1297263;22;19992;-79
2023/08/01 01:09:25;;;;;;;;;;;;;;;;;;1297589;22;19909;-79
2023/08/01 01:09:55;;;;;;;;;;;;;;;;;;1297165;22;19910;-79
2023/08/01 01:10:25;;;;;;;;;;;;;;;;;;1297095;22;19993;-79
2023/08/01 01:10:56;;;;;;;;;;;;;;;;;;1297337;22;20013;-79
2023/08/01 01:11:26;;;;;;;;;;;;;;;;;;1291163;23;19910;-79
2023/08/01 01:11:56;;;;;;;;;;;;;;;;;;1290721;23;20340;-79
2023/08/01 01:17:47;;;;;;;;;;;;;;;;;;1260776;22;20905;-79
2023/08/01 01:27:35;;;;;;;;;;;;;;;;;;1285490;23;19924;-79
2023/08/01 01:28:05;;;;;;;;;;;;;;;;;;1285264;23;19904;-79
2023/08/01 01:28:35;;;;;;;;;;;;;;;;;;1285292;23;19904;-79
2023/08/01 01:29:06;;;;;;;;;;;;;;;;;;1285103;23;19904;-79
2023/08/01 01:29:36;;;;;;;;;;;;;;;;;;1285221;23;19904;-79
2023/08/01 01:30:06;;;;;;;;;;;;;;;;;;1285204;23;19904;-79
2023/08/01 01:30:36;;;;;;;;;;;;;;;;;;1285411;23;20007;-80
2023/08/01 01:31:07;;;;;;;;;;;;;;;;;;1285075;23;19907;-79
2023/08/01 01:31:37;;;;;;;;;;;;;;;;;;1284791;23;19910;-77
2023/08/01 01:32:07;;;;;;;;;;;;;;;;;;1284593;23;19958;-78
2023/08/01 01:32:37;;;;;;;;;;;;;;;;;;1278561;23;19904;-77
2023/08/01 01:33:09;;;;;;;;;;;;;;;;;;1278605;23;20039;-78
2023/08/01 01:33:39;;;;;;;;;;;;;;;;;;1278930;23;19905;-78
2023/08/01 01:34:10;;;;;;;;;;;;;;;;;;1284748;23;19911;-76
2023/08/01 01:34:40;;;;;;;;;;;;;;;;;;1285264;23;19932;-77
2023/08/01 01:35:10;;;;;;;;;;;;;;;;;;1285250;23;19995;-79
2023/08/01 01:35:40;;;;;;;;;;;;;;;;;;1285355;23;19904;-79
2023/08/01 01:36:10;;;;;;;;;;;;;;;;;;1285182;23;19995;-77
2023/08/01 01:36:41;;;;;;;;;;;;;;;;;;1284759;23;20382;-77
2023/08/01 01:37:11;;;;;;;;;;;;;;;;;;1284714;23;19939;-78
2023/08/01 01:37:41;;;;;;;;;;;;;;;;;;1284851;23;20050;-79
2023/08/01 01:38:11;;;;;;;;;;;;;;;;;;1284647;23;19904;-79
2023/08/01 01:38:42;;;;;;;;;;;;;;;;;;1284953;23;19919;-81
2023/08/01 01:39:12;;;;;;;;;;;;;;;;;;1284696;23;20337;-80
2023/08/01 01:39:42;;;;;;;;;;;;;;;;;;1284852;23;19912;-79
2023/08/01 01:40:12;;;;;;;;;;;;;;;;;;1285439;23;19995;-81
2023/08/01 01:40:43;;;;;;;;;;;;;;;;;;1285343;23;20241;-78
2023/08/01 01:41:13;;;;;;;;;;;;;;;;;;1284488;23;20254;-79
2023/08/01 01:41:43;;;;;;;;;;;;;;;;;;1284869;23;20380;-79
2023/08/01 01:48:54;;;;;;;;;;;;;;;;;;1273894;22;20862;-78
2023/08/01 01:49:26;;;;;;;;;;;;;;;;;;1304170;22;19911;-78
2023/08/01 01:49:56;;;;;;;;;;;;;;;;;;1302479;22;19903;-78
2023/08/01 01:50:26;;;;;;;;;;;;;;;;;;1304145;22;19903;-78
2023/08/01 01:50:56;;;;;;;;;;;;;;;;;;1303305;22;20340;-78
2023/08/01 01:51:26;;;;;;;;;;;;;;;;;;1303728;22;20002;-78
2023/08/01 01:51:57;;;;;;;;;;;;;;;;;;1303413;22;19907;-76
2023/08/01 01:52:27;;;;;;;;;;;;;;;;;;1303881;22;19977;-78
2023/08/01 01:52:57;;;;;;;;;;;;;;;;;;1303979;22;20243;-77
2023/08/01 01:53:27;;;;;;;;;;;;;;;;;;1304130;22;19903;-78
2023/08/01 01:53:58;;;;;;;;;;;;;;;;;;1303849;22;19909;-77
2023/08/01 01:54:28;;;;;;;;;;;;;;;;;;1303753;22;20004;-79
2023/08/01 01:54:58;;;;;;;;;;;;;;;;;;1297119;22;19907;-78
2023/08/01 01:55:28;;;;;;;;;;;;;;;;;;1297472;22;19904;-79
2023/08/01 01:55:59;;;;;;;;;;;;;;;;;;1297149;22;19907;-78
2023/08/01 01:56:29;;;;;;;;;;;;;;;;;;1304032;22;19994;-79
2023/08/01 01:57:00;;;;;;;;;;;;;;;;;;1297010;22;19986;-78
2023/08/01 02:01:57;;;;;;;;;;;;;;;;;;1292428;22;19927;-79
2023/08/01 02:03:10;;;;;;;;;;;;;;;;;;1267712;22;20270;-79
2023/08/01 02:03:40;;;;;;;;;;;;;;;;;;1253824;23;19910;-79
2023/08/01 02:04:10;;;;;;;;;;;;;;;;;;1253551;23;19956;-78
2023/08/01 02:04:40;;;;;;;;;;;;;;;;;;1253833;23;19905;-80
2023/08/01 02:05:11;;;;;;;;;;;;;;;;;;1253494;23;19905;-76
2023/08/01 02:05:41;;;;;;;;;;;;;;;;;;1253768;23;20330;-79
2023/08/01 02:06:11;;;;;;;;;;;;;;;;;;1253704;23;20378;-78
2023/08/01 02:06:41;;;;;;;;;;;;;;;;;;1253802;23;20330;-78
2023/08/01 02:07:13;;;;;;;;;;;;;;;;;;1253596;23;20377;-78
2023/08/01 02:07:43;;;;;;;;;;;;;;;;;;1247403;23;19945;-77
2023/08/01 02:08:13;;;;;;;;;;;;;;;;;;1241540;23;19906;-80
2023/08/01 02:08:43;;;;;;;;;;;;;;;;;;1241788;23;19917;-78
2023/08/01 02:09:14;;;;;;;;;;;;;;;;;;1241578;23;19907;-79
2023/08/01 02:09:44;;;;;;;;;;;;;;;;;;1247680;23;19910;-78
2023/08/01 02:10:14;;;;;;;;;;;;;;;;;;1253740;23;19906;-81
2023/08/01 02:10:44;;;;;;;;;;;;;;;;;;1253891;23;19992;-80
2023/08/01 02:11:14;;;;;;;;;;;;;;;;;;1247325;23;19906;-80
2023/08/01 02:11:45;;;;;;;;;;;;;;;;;;1247634;23;19988;-78
2023/08/01 02:14:47;;;;;;;;;;;;;;;;;;1252051;23;19953;-78
2023/08/01 02:15:17;;;;;;;;;;;;;;;;;;1253633;23;19905;-78
2023/08/01 02:15:47;;;;;;;;;;;;;;;;;;1253721;23;19955;-77
2023/08/01 02:16:18;;;;;;;;;;;;;;;;;;1253572;23;19951;-77
2023/08/01 02:16:48;;;;;;;;;;;;;;;;;;1253235;23;19916;-76
2023/08/01 02:17:18;;;;;;;;;;;;;;;;;;1253450;23;20677;-78
2023/08/01 02:17:48;;;;;;;;;;;;;;;;;;1253510;23;20270;-77
2023/08/01 02:18:19;;;;;;;;;;;;;;;;;;1253481;23;20210;-77
2023/08/01 02:18:49;;;;;;;;;;;;;;;;;;1253513;23;19985;-77
2023/08/01 02:19:19;;;;;;;;;;;;;;;;;;1253176;23;19996;-77
2023/08/01 02:19:49;;;;;;;;;;;;;;;;;;1253290;23;19992;-78
2023/08/01 02:20:20;;;;;;;;;;;;;;;;;;1253151;23;19906;-79
2023/08/01 02:20:50;;;;;;;;;;;;;;;;;;1253043;23;19909;-78
2023/08/01 02:21:20;;;;;;;;;;;;;;;;;;1253354;23;20374;-77
2023/08/01 02:21:50;;;;;;;;;;;;;;;;;;1253226;23;19910;-76
2023/08/01 02:22:21;;;;;;;;;;;;;;;;;;1253758;23;19931;-78
2023/08/01 02:22:51;;;;;;;;;;;;;;;;;;1252780;23;20331;-77
2023/08/01 02:23:21;;;;;;;;;;;;;;;;;;1253274;23;19906;-77
2023/08/01 02:23:51;;;;;;;;;;;;;;;;;;1253109;23;19924;-78
2023/08/01 02:24:22;;;;;;;;;;;;;;;;;;1253366;23;20254;-77
2023/08/01 02:24:52;;;;;;;;;;;;;;;;;;1253197;23;19993;-77
2023/08/01 02:25:23;;;;;;;;;;;;;;;;;;1253384;23;19912;-76
2023/08/01 02:26:28;;;;;;;;;;;;;;;;;;1289434;23;19928;-81
2023/08/01 02:26:59;;;;;;;;;;;;;;;;;;1290711;22;19910;-78
2023/08/01 02:27:29;;;;;;;;;;;;;;;;;;1291140;23;19969;-77
2023/08/01 02:27:59;;;;;;;;;;;;;;;;;;1291202;23;19963;-79
2023/08/01 02:28:29;;;;;;;;;;;;;;;;;;1291437;23;19903;-78
2023/08/01 02:29:00;;;;;;;;;;;;;;;;;;1291087;23;19903;-77
2023/08/01 02:29:30;;;;;;;;;;;;;;;;;;1291290;23;19903;-78
2023/08/01 02:30:00;;;;;;;;;;;;;;;;;;1291181;23;19904;-77
2023/08/01 02:30:30;;;;;;;;;;;;;;;;;;1291394;22;20260;-76
2023/08/01 02:31:01;;;;;;;;;;;;;;;;;;1291084;23;20213;-81
2023/08/01 02:31:31;;;;;;;;;;;;;;;;;;1290518;23;20240;-79
2023/08/01 02:32:01;;;;;;;;;;;;;;;;;;1291065;22;19904;-79
2023/08/01 02:35:12;;;;;;;;;;;;;;;;;;1271393;23;20277;-80
2023/08/01 02:35:42;;;;;;;;;;;;;;;;;;1279161;23;19920;-77
2023/08/01 02:36:12;;;;;;;;;;;;;;;;;;1278635;23;20137;-79
2023/08/01 02:36:42;;;;;;;;;;;;;;;;;;1279005;23;19935;-79
2023/08/01 02:37:13;;;;;;;;;;;;;;;;;;1278796;23;19999;-79
2023/08/01 02:37:43;;;;;;;;;;;;;;;;;;1279058;23;20003;-79
2023/08/01 02:38:13;;;;;;;;;;;;;;;;;;1278722;23;19911;-77
2023/08/01 02:38:43;;;;;;;;;;;;;;;;;;1279022;23;19947;-79
2023/08/01 02:39:13;;;;;;;;;;;;;;;;;;1278626;23;19987;-76
2023/08/01 02:39:44;;;;;;;;;;;;;;;;;;1276257;23;20399;-76
2023/08/01 02:40:14;;;;;;;;;;;;;;;;;;1272284;23;20395;-78
2023/08/01 02:40:44;;;;;;;;;;;;;;;;;;1272083;23;19940;-78
2023/08/01 02:41:14;;;;;;;;;;;;;;;;;;1272448;23;19932;-79
2023/08/01 02:41:45;;;;;;;;;;;;;;;;;;1278499;23;19912;-77
2023/08/01 02:42:15;;;;;;;;;;;;;;;;;;1278437;23;19926;-78
2023/08/01 02:42:45;;;;;;;;;;;;;;;;;;1278326;23;19908;-78
2023/08/01 02:43:15;;;;;;;;;;;;;;;;;;1278012;23;20649;-78
2023/08/01 02:43:46;;;;;;;;;;;;;;;;;;1278699;23;20241;-78
2023/08/01 02:44:16;;;;;;;;;;;;;;;;;;1278731;23;19904;-78
2023/08/01 02:44:46;;;;;;;;;;;;;;;;;;1278773;23;19915;-78
2023/08/01 02:45:16;;;;;;;;;;;;;;;;;;1278273;23;19958;-74
2023/08/01 02:45:47;;;;;;;;;;;;;;;;;;1278580;23;20307;-75
2023/08/01 02:46:17;;;;;;;;;;;;;;;;;;1278055;23;20308;-80
2023/08/01 02:46:47;;;;;;;;;;;;;;;;;;1278041;23;20256;-78
2023/08/01 02:47:17;;;;;;;;;;;;;;;;;;1278176;23;19943;-78
2023/08/01 02:47:47;;;;;;;;;;;;;;;;;;1278112;23;20317;-79
2023/08/01 02:48:18;;;;;;;;;;;;;;;;;;1278547;23;19905;-78
2023/08/01 02:48:48;;;;;;;;;;;;;;;;;;1278553;23;19930;-77
2023/08/01 02:49:18;;;;;;;;;;;;;;;;;;1278651;23;19904;-77
2023/08/01 02:49:48;;;;;;;;;;;;;;;;;;1278875;23;19915;-74
2023/08/01 02:50:19;;;;;;;;;;;;;;;;;;1278657;23;19904;-77
2023/08/01 02:50:49;;;;;;;;;;;;;;;;;;1278856;23;19908;-79
2023/08/01 02:51:19;;;;;;;;;;;;;;;;;;1278038;23;19904;-77
2023/08/01 02:51:49;;;;;;;;;;;;;;;;;;1278279;23;19987;-79
2023/08/01 02:52:19;;;;;;;;;;;;;;;;;;1278231;23;19995;-77
2023/08/01 02:52:50;;;;;;;;;;;;;;;;;;1278464;23;19983;-79
2023/08/01 02:53:20;;;;;;;;;;;;;;;;;;1278852;23;19905;-78
2023/08/01 02:53:50;;;;;;;;;;;;;;;;;;1278600;23;19909;-79
2023/08/01 02:55:48;;;;;;;;;;;;;;;;;;1259245;23;20386;-78
2023/08/01 02:56:19;;;;;;;;;;;;;;;;;;1253986;22;19914;-77
2023/08/01 02:56:49;;;;;;;;;;;;;;;;;;1259408;23;19917;-79
2023/08/01 03:00:05;;;;;;;;;;;;;;;;;;1256659;22;19925;-78
2023/08/01 03:03:10;;;;;;;;;;;;;;;;;;1281486;23;20353;-78
2023/08/01 03:03:41;;;;;;;;;;;;;;;;;;1281591;23;19903;-78
2023/08/01 03:04:11;;;;;;;;;;;;;;;;;;1281138;23;19904;-80
2023/08/01 03:04:41;;;;;;;;;;;;;;;;;;1284373;23;19916;-76
2023/08/01 03:05:12;;;;;;;;;;;;;;;;;;1284566;23;19986;-82
2023/08/01 03:06:57;;;;;;;;;;;;;;;;;;1280574;23;19924;-78
2023/08/01 03:08:01;;;;;;;;;;;;;;;;;;1285266;22;19924;-79
2023/08/01 03:08:31;;;;;;;;;;;;;;;;;;1288071;23;19904;-78
2023/08/01 03:09:01;;;;;;;;;;;;;;;;;;1287968;23;19903;-78
2023/08/01 03:09:32;;;;;;;;;;;;;;;;;;1288667;23;20294;-79
2023/08/01 03:10:02;;;;;;;;;;;;;;;;;;1287053;23;19910;-79
2023/08/01 03:10:32;;;;;;;;;;;;;;;;;;1287406;23;19910;-79
2023/08/01 03:11:02;;;;;;;;;;;;;;;;;;1287902;23;19904;-78
2023/08/01 03:11:33;;;;;;;;;;;;;;;;;;1281494;23;19970;-79
2023/08/01 03:12:33;;;;;;;;;;;;;;;;;;1271378;23;21438;-76
2023/08/01 03:13:03;;;;;;;;;;;;;;;;;;1275569;22;19920;-79
2023/08/01 03:13:33;;;;;;;;;;;;;;;;;;1281173;23;19927;-79
2023/08/01 03:14:06;;;;;;;;;;;;;;;;;;1249235;23;19910;-78
2023/08/01 03:14:37;;;;;;;;;;;;;;;;;;1250084;23;20354;-78
2023/08/01 03:15:08;;;;;;;;;;;;;;;;;;1250279;23;19993;-76
2023/08/01 03:15:38;;;;;;;;;;;;;;;;;;1250127;23;19912;-78
2023/08/01 03:16:10;;;;;;;;;;;;;;;;;;1251077;23;19928;-78
2023/08/01 03:16:40;;;;;;;;;;;;;;;;;;1250294;23;20506;-77
2023/08/01 03:17:50;;;;;;;;;;;;;;;;;;1253317;23;20527;-77
2023/08/01 03:18:20;;;;;;;;;;;;;;;;;;1281198;23;20159;-77
2023/08/01 03:18:51;;;;;;;;;;;;;;;;;;1281750;23;19977;-77
2023/08/01 03:19:21;;;;;;;;;;;;;;;;;;1281877;23;19903;-77
2023/08/01 03:19:51;;;;;;;;;;;;;;;;;;1281859;23;19908;-76
2023/08/01 03:20:22;;;;;;;;;;;;;;;;;;1282033;23;19912;-78
2023/08/01 03:20:52;;;;;;;;;;;;;;;;;;1281560;23;19911;-79
2023/08/01 03:21:23;;;;;;;;;;;;;;;;;;1282081;23;19919;-78
2023/08/01 03:21:53;;;;;;;;;;;;;;;;;;1282659;23;19935;-77
2023/08/01 03:22:23;;;;;;;;;;;;;;;;;;1283442;23;19907;-78
2023/08/01 03:24:13;;;;;;;;;;;;;;;;;;1254477;22;20047;-75
2023/08/01 03:24:44;;;;;;;;;;;;;;;;;;1259566;23;20249;-78
2023/08/01 03:25:14;;;;;;;;;;;;;;;;;;1259788;23;19914;-79
2023/08/01 03:25:44;;;;;;;;;;;;;;;;;;1259607;23;19914;-80
2023/08/01 03:26:15;;;;;;;;;;;;;;;;;;1259838;23;19962;-78
2023/08/01 03:26:45;;;;;;;;;;;;;;;;;;1259750;23;19909;-76
2023/08/01 03:27:15;;;;;;;;;;;;;;;;;;1263591;23;19941;-79
2023/08/01 03:27:46;;;;;;;;;;;;;;;;;;1265872;23;20277;-78
2023/08/01 03:28:16;;;;;;;;;;;;;;;;;;1265751;23;19927;-76
2023/08/01 03:28:46;;;;;;;;;;;;;;;;;;1265818;23;20039;-76
2023/08/01 03:29:16;;;;;;;;;;;;;;;;;;1265767;23;20409;-79
2023/08/01 03:29:46;;;;;;;;;;;;;;;;;;1265886;23;20325;-76
2023/08/01 03:30:17;;;;;;;;;;;;;;;;;;1265755;23;20245;-76
2023/08/01 03:30:49;;;;;;;;;;;;;;;;;;1265223;23;19962;-75
2023/08/01 03:31:20;;;;;;;;;;;;;;;;;;1265025;23;19975;-77
2023/08/01 03:31:50;;;;;;;;;;;;;;;;;;1265167;23;19991;-78
2023/08/01 03:32:20;;;;;;;;;;;;;;;;;;1265500;23;19908;-78
2023/08/01 03:32:50;;;;;;;;;;;;;;;;;;1265474;23;19995;-76
2023/08/01 03:33:21;;;;;;;;;;;;;;;;;;1265698;23;19905;-76
2023/08/01 03:33:51;;;;;;;;;;;;;;;;;;1265489;23;19916;-77
2023/08/01 03:34:21;;;;;;;;;;;;;;;;;;1259448;23;19913;-77
2023/08/01 03:34:52;;;;;;;;;;;;;;;;;;1259219;23;19916;-78
2023/08/01 03:35:23;;;;;;;;;;;;;;;;;;1258587;23;19905;-79
2023/08/01 03:35:54;;;;;;;;;;;;;;;;;;1261396;23;19905;-79
2023/08/01 03:36:24;;;;;;;;;;;;;;;;;;1255358;23;20047;-77
2023/08/01 03:36:54;;;;;;;;;;;;;;;;;;1256151;23;20031;-77
2023/08/01 03:37:24;;;;;;;;;;;;;;;;;;1260807;23;19983;-78
2023/08/01 03:37:55;;;;;;;;;;;;;;;;;;1261492;23;19913;-78
2023/08/01 03:38:25;;;;;;;;;;;;;;;;;;1262601;23;19912;-81
2023/08/01 03:38:55;;;;;;;;;;;;;;;;;;1261778;23;20344;-77
2023/08/01 03:39:25;;;;;;;;;;;;;;;;;;1261757;23;20051;-76
2023/08/01 03:39:55;;;;;;;;;;;;;;;;;;1261170;23;19905;-77
2023/08/01 03:40:26;;;;;;;;;;;;;;;;;;1261436;23;19954;-77
2023/08/01 03:40:56;;;;;;;;;;;;;;;;;;1261340;23;20438;-78
2023/08/01 03:41:27;;;;;;;;;;;;;;;;;;1261045;23;19909;-78
2023/08/01 03:41:57;;;;;;;;;;;;;;;;;;1251071;22;19905;-84
2023/08/01 03:42:27;;;;;;;;;;;;;;;;;;1254026;23;19961;-85
2023/08/01 03:46:18;;;;;;;;;;;;;;;;;;1286437;22;20306;-77
2023/08/01 03:46:48;;;;;;;;;;;;;;;;;;1287683;22;20217;-76
2023/08/01 03:47:52;;;;;;;;;;;;;;;;;;1275863;23;19924;-79
2023/08/01 03:48:22;;;;;;;;;;;;;;;;;;1274554;23;19910;-78
2023/08/01 03:48:52;;;;;;;;;;;;;;;;;;1273752;23;19904;-79
2023/08/01 03:49:23;;;;;;;;;;;;;;;;;;1274486;23;19958;-75
2023/08/01 03:49:53;;;;;;;;;;;;;;;;;;1274608;23;19955;-80
2023/08/01 03:50:23;;;;;;;;;;;;;;;;;;1268664;23;19904;-81
2023/08/01 03:50:53;;;;;;;;;;;;;;;;;;1267806;23;20500;-78
2023/08/01 03:51:24;;;;;;;;;;;;;;;;;;1269117;23;19912;-78
2023/08/01 03:51:55;;;;;;;;;;;;;;;;;;1268182;23;19928;-79
2023/08/01 03:53:07;;;;;;;;;;;;;;;;;;1277959;22;20285;-83
2023/08/01 03:54:17;;;;;;;;;;;;;;;;;;1281923;22;20461;-78
2023/08/01 03:54:47;;;;;;;;;;;;;;;;;;1287290;23;19911;-78
2023/08/01 03:55:17;;;;;;;;;;;;;;;;;;1285177;23;20395;-78
2023/08/01 03:55:48;;;;;;;;;;;;;;;;;;1288231;23;20532;-78
2023/08/01 03:56:18;;;;;;;;;;;;;;;;;;1287288;22;19903;-79
2023/08/01 03:56:49;;;;;;;;;;;;;;;;;;1289073;23;19930;-78
2023/08/01 03:57:19;;;;;;;;;;;;;;;;;;1296034;22;19943;-77
2023/08/01 03:57:49;;;;;;;;;;;;;;;;;;1297943;22;19986;-78
2023/08/01 03:58:19;;;;;;;;;;;;;;;;;;1297976;22;19993;-77
2023/08/01 03:58:50;;;;;;;;;;;;;;;;;;1297841;22;19990;-78
2023/08/01 03:59:20;;;;;;;;;;;;;;;;;;1297511;22;19907;-77
2023/08/01 03:59:50;;;;;;;;;;;;;;;;;;1297442;22;19912;-78
2023/08/01 04:00:20;;;;;;;;;;;;;;;;;;1297613;22;19909;-76
2023/08/01 04:00:51;;;;;;;;;;;;;;;;;;1297350;22;19907;-77
2023/08/01 04:01:21;;;;;;;;;;;;;;;;;;1297694;22;19911;-78
2023/08/01 04:01:51;;;;;;;;;;;;;;;;;;1290983;22;19920;-77
2023/08/01 04:02:21;;;;;;;;;;;;;;;;;;1286920;23;20075;-77
2023/08/01 04:02:51;;;;;;;;;;;;;;;;;;1287290;23;19912;-77
2023/08/01 04:03:22;;;;;;;;;;;;;;;;;;1284877;23;19910;-78
2023/08/01 04:03:52;;;;;;;;;;;;;;;;;;1293500;22;19945;-77
2023/08/01 04:04:22;;;;;;;;;;;;;;;;;;1294825;22;19909;-78
2023/08/01 04:04:53;;;;;;;;;;;;;;;;;;1294642;22;19903;-78
2023/08/01 04:05:24;;;;;;;;;;;;;;;;;;1295235;22;19910;-77
2023/08/01 04:05:54;;;;;;;;;;;;;;;;;;1293142;22;19903;-76
2023/08/01 04:06:24;;;;;;;;;;;;;;;;;;1293121;22;19904;-79
2023/08/01 04:06:54;;;;;;;;;;;;;;;;;;1292963;22;19903;-80
2023/08/01 04:07:25;;;;;;;;;;;;;;;;;;1293004;22;19997;-79
2023/08/01 04:07:55;;;;;;;;;;;;;;;;;;1292998;22;19930;-77
2023/08/01 04:08:25;;;;;;;;;;;;;;;;;;1293479;22;19903;-78
2023/08/01 04:08:56;;;;;;;;;;;;;;;;;;1287619;22;20331;-76
2023/08/01 04:09:26;;;;;;;;;;;;;;;;;;1286725;23;19953;-77
2023/08/01 04:09:57;;;;;;;;;;;;;;;;;;1287269;22;20313;-77
2023/08/01 04:10:27;;;;;;;;;;;;;;;;;;1293801;22;19903;-78
2023/08/01 04:10:57;;;;;;;;;;;;;;;;;;1294196;22;20356;-78
2023/08/01 04:11:29;;;;;;;;;;;;;;;;;;1294235;22;19925;-77
2023/08/01 04:11:59;;;;;;;;;;;;;;;;;;1293926;22;19986;-79
2023/08/01 04:12:30;;;;;;;;;;;;;;;;;;1294125;22;19909;-78
2023/08/01 04:13:00;;;;;;;;;;;;;;;;;;1293125;22;19934;-78
2023/08/01 04:13:30;;;;;;;;;;;;;;;;;;1293867;22;19904;-78
2023/08/01 04:14:00;;;;;;;;;;;;;;;;;;1292138;22;19903;-80
2023/08/01 04:16:28;;;;;;;;;;;;;;;;;;1265942;22;20306;-77
2023/08/01 04:16:58;;;;;;;;;;;;;;;;;;1261247;23;19958;-77
2023/08/01 04:17:29;;;;;;;;;;;;;;;;;;1270324;23;20003;-78
2023/08/01 04:17:59;;;;;;;;;;;;;;;;;;1272236;22;20447;-79
2023/08/01 04:18:30;;;;;;;;;;;;;;;;;;1268701;23;20033;-78
2023/08/01 04:19:00;;;;;;;;;;;;;;;;;;1268410;23;20039;-78
2023/08/01 04:19:30;;;;;;;;;;;;;;;;;;1268557;23;19987;-78
2023/08/01 04:20:00;;;;;;;;;;;;;;;;;;1267033;23;19904;-78
2023/08/01 04:20:31;;;;;;;;;;;;;;;;;;1268227;23;19923;-78
2023/08/01 04:21:01;;;;;;;;;;;;;;;;;;1267664;23;20309;-77
2023/08/01 04:21:31;;;;;;;;;;;;;;;;;;1268686;23;20245;-78
2023/08/01 04:22:01;;;;;;;;;;;;;;;;;;1292593;22;19904;-77
2023/08/01 04:22:32;;;;;;;;;;;;;;;;;;1292586;22;19966;-78
2023/08/01 04:23:02;;;;;;;;;;;;;;;;;;1287099;23;19904;-80
2023/08/01 04:23:32;;;;;;;;;;;;;;;;;;1286941;23;20328;-78
2023/08/01 04:24:02;;;;;;;;;;;;;;;;;;1287662;23;20745;-79
2023/08/01 04:24:33;;;;;;;;;;;;;;;;;;1285672;23;19938;-78
2023/08/01 04:25:03;;;;;;;;;;;;;;;;;;1286550;23;19912;-77
2023/08/01 04:25:33;;;;;;;;;;;;;;;;;;1280999;23;19916;-79
2023/08/01 04:26:05;;;;;;;;;;;;;;;;;;1286662;23;20006;-78
2023/08/01 04:26:36;;;;;;;;;;;;;;;;;;1287314;22;19935;-78
2023/08/01 04:27:07;;;;;;;;;;;;;;;;;;1292325;22;19910;-78
2023/08/01 04:27:37;;;;;;;;;;;;;;;;;;1267783;23;19905;-78
2023/08/01 04:28:07;;;;;;;;;;;;;;;;;;1293094;22;19903;-78
2023/08/01 04:28:37;;;;;;;;;;;;;;;;;;1294992;22;19907;-79
2023/08/01 04:29:08;;;;;;;;;;;;;;;;;;1294019;22;19903;-78
2023/08/01 04:29:38;;;;;;;;;;;;;;;;;;1294480;22;19910;-79
2023/08/01 04:30:08;;;;;;;;;;;;;;;;;;1268756;22;20321;-79
2023/08/01 04:30:38;;;;;;;;;;;;;;;;;;1269336;23;20298;-78
2023/08/01 04:31:09;;;;;;;;;;;;;;;;;;1293011;22;20009;-78
2023/08/01 04:36:09;;;;;;;;;;;;;;;;;;1263589;22;20295;-77
2023/08/01 04:36:39;;;;;;;;;;;;;;;;;;1287576;23;19919;-77
2023/08/01 04:37:49;;;;;;;;;;;;;;;;;;1275960;22;20785;-78
2023/08/01 04:38:20;;;;;;;;;;;;;;;;;;1287239;23;20109;-77
2023/08/01 04:38:50;;;;;;;;;;;;;;;;;;1290052;23;19908;-78
2023/08/01 04:39:20;;;;;;;;;;;;;;;;;;1290983;23;19911;-77
2023/08/01 04:39:50;;;;;;;;;;;;;;;;;;1290990;23;19957;-79
2023/08/01 04:40:21;;;;;;;;;;;;;;;;;;1292051;22;19919;-80
2023/08/01 04:40:51;;;;;;;;;;;;;;;;;;1292297;22;19939;-81
2023/08/01 04:41:21;;;;;;;;;;;;;;;;;;1291130;23;20410;-80
2023/08/01 04:41:51;;;;;;;;;;;;;;;;;;1290423;23;19943;-81
2023/08/01 04:42:22;;;;;;;;;;;;;;;;;;1268946;22;19929;-84